Time;durP1;ratioP1;P1;durP2;ratioP2;P2;SDS_P1;SDS_P2;PMS_P1;PMS_P2;Temp;Humidity;BMP_temperature;BMP_pressure;BME280_temperature;BME280_humidity;BME280_pressure;Samples;Min_cycle;Max_cycle;Signal;HPM_P1;HPM_P2
2023/09/14 00:00:29;;;;;;;2.90;0.63;;;13.10;99.90;;;;;;5053765;28;20504;-73
2023/09/14 00:02:55;;;;;;;1.90;0.10;;;13.00;99.90;;;;;;5035882;28;20029;-73
2023/09/14 00:05:21;;;;;;;4.63;0.30;;;13.10;99.90;;;;;;5054113;28;20106;-73
2023/09/14 00:07:46;;;;;;;3.75;0.00;;;13.10;99.90;;;;;;5054382;28;20036;-73
2023/09/14 00:10:12;;;;;;;5.53;0.80;;;;;;;;;;5053644;28;20021;-73
2023/09/14 00:12:38;;;;;;;1.75;0.10;;;13.10;99.90;;;;;;5035796;28;20029;-73
2023/09/14 00:15:04;;;;;;;2.53;0.00;;;13.10;99.90;;;;;;5053463;28;20389;-73
2023/09/14 00:17:30;;;;;;;6.28;0.20;;;13.10;99.90;;;;;;5053496;28;20135;-73
2023/09/14 00:19:55;;;;;;;5.63;0.28;;;13.00;99.90;;;;;;5053485;28;20507;-73
2023/09/14 00:22:21;;;;;;;1.63;0.10;;;13.00;99.90;;;;;;5035447;28;20032;-73
2023/09/14 00:24:46;;;;;;;2.40;0.15;;;12.90;99.90;;;;;;5035539;28;20025;-73
2023/09/14 00:27:12;;;;;;;4.15;0.47;;;12.90;99.90;;;;;;5053277;28;20511;-73
2023/09/14 00:29:37;;;;;;;4.45;0.10;;;12.80;99.90;;;;;;5053323;28;20503;-73
2023/09/14 00:32:03;;;;;;;1.65;0.00;;;12.70;99.90;;;;;;5035498;28;20017;-73
2023/09/14 00:34:29;;;;;;;2.97;0.10;;;12.70;99.90;;;;;;5053233;28;20017;-73
2023/09/14 00:36:57;;;;;;;1.85;0.10;;;12.60;99.90;;;;;;5054049;28;20029;-73
2023/09/14 00:39:23;;;;;;;3.08;0.10;;;12.60;99.90;;;;;;5053135;28;20020;-73
2023/09/14 00:41:48;;;;;;;5.03;0.03;;;12.50;99.90;;;;;;5053688;28;20146;-73
2023/09/14 00:44:14;;;;;;;3.45;0.13;;;12.50;99.90;;;;;;5053043;28;20025;-73
2023/09/14 00:46:40;;;;;;;0.50;0.00;;;12.50;99.90;;;;;;5052939;28;20025;-73
2023/09/14 00:49:05;;;;;;;2.60;0.10;;;12.50;99.90;;;;;;5053631;28;20098;-73
2023/09/14 00:51:32;;;;;;;4.32;0.75;;;12.40;99.90;;;;;;5052562;28;20096;-73
2023/09/14 00:53:59;;;;;;;3.67;0.45;;;12.30;99.90;;;;;;5034596;28;20052;-73
2023/09/14 00:56:26;;;;;;;1.20;0.22;;;12.30;99.90;;;;;;5035118;28;20476;-73
2023/09/14 00:58:53;;;;;;;2.58;0.10;;;12.30;99.90;;;;;;5053051;28;20567;-73
2023/09/14 01:01:19;;;;;;;2.20;0.22;;;12.20;99.90;;;;;;5052960;28;20100;-73
2023/09/14 01:03:45;;;;;;;1.20;0.08;;;12.10;99.90;;;;;;5035105;28;20447;-73
2023/09/14 01:06:11;;;;;;;3.58;0.00;;;12.10;99.90;;;;;;5052864;28;20021;-73
2023/09/14 01:08:37;;;;;;;2.67;0.40;;;12.10;99.90;;;;;;5053037;28;20032;-73
2023/09/14 01:11:03;;;;;;;3.53;0.00;;;12.10;99.90;;;;;;5052947;28;20029;-73
2023/09/14 01:13:47;;;;;;;0.40;0.00;;;12.00;99.90;;;;;;5052856;28;20083;-73
2023/09/14 01:16:38;;;;;;;0.90;0.00;;;12.00;99.90;;;;;;5034929;28;20021;-73
2023/09/14 01:19:36;;;;;;;3.17;0.10;;;12.00;99.90;;;;;;5053383;28;20546;-73
2023/09/14 01:22:10;;;;;;;0.90;0.20;;;12.00;99.90;;;;;;5052733;28;20036;-73
2023/09/14 01:25:03;;;;;;;1.38;0.52;;;12.00;99.90;;;;;;5034878;28;20029;-73
2023/09/14 01:27:29;;;;;;;1.50;0.17;;;12.00;99.90;;;;;;5034884;28;20112;-73
2023/09/14 01:29:57;;;;;;;2.35;0.10;;;12.10;99.90;;;;;;5034837;28;20104;-73
2023/09/14 01:32:22;;;;;;;1.33;0.20;;;12.10;99.90;;;;;;5052614;28;20029;-73
2023/09/14 01:34:48;;;;;;;1.35;0.10;;;12.10;99.90;;;;;;5052654;28;20329;-73
2023/09/14 01:37:15;;;;;;;1.33;0.00;;;12.10;99.90;;;;;;5052529;28;20025;-73
2023/09/14 01:39:42;;;;;;;0.90;0.10;;;12.10;99.90;;;;;;5052594;28;20025;-73
2023/09/14 01:42:08;;;;;;;2.30;0.20;;;12.10;99.90;;;;;;5034603;28;20083;-73
2023/09/14 01:44:34;;;;;;;3.50;0.17;;;12.00;99.90;;;;;;5034655;28;20025;-73
2023/09/14 01:47:00;;;;;;;2.83;0.10;;;12.10;99.90;;;;;;5052239;28;20501;-73
2023/09/14 01:49:26;;;;;;;2.00;0.10;;;12.00;99.90;;;;;;5053090;28;20022;-73
2023/09/14 01:51:53;;;;;;;3.05;0.15;;;12.00;99.90;;;;;;5052525;28;20499;-73
2023/09/14 01:54:21;;;;;;;0.50;0.10;;;12.00;99.90;;;;;;5052732;28;20028;-73
2023/09/14 01:56:48;;;;;;;1.85;0.00;;;11.90;99.90;;;;;;5052320;28;20108;-73
2023/09/14 01:59:14;;;;;;;0.77;0.10;;;11.90;99.90;;;;;;5034528;28;20032;-73
2023/09/14 02:01:39;;;;;;;2.45;0.05;;;11.80;99.90;;;;;;5034589;28;20067;-73
2023/09/14 02:04:05;;;;;;;2.40;0.15;;;11.80;99.90;;;;;;5053943;28;20032;-73
2023/09/14 02:06:31;;;;;;;3.15;0.85;;;11.80;99.90;;;;;;5038128;28;20435;-73
2023/09/14 02:08:56;;;;;;;3.20;0.20;;;11.70;99.90;;;;;;5055959;28;20377;-73
2023/09/14 02:11:22;;;;;;;1.80;0.47;;;11.70;99.90;;;;;;5056411;28;20532;-73
2023/09/14 02:13:48;;;;;;;2.47;0.13;;;11.60;99.90;;;;;;5055955;28;20037;-75
2023/09/14 02:16:13;;;;;;;4.32;0.20;;;11.50;99.90;;;;;;5055736;28;20432;-73
2023/09/14 02:18:39;;;;;;;5.22;0.25;;;11.50;99.90;;;;;;5055666;28;20104;-73
2023/09/14 02:21:04;;;;;;;1.60;0.13;;;11.50;99.90;;;;;;5037810;28;20088;-73
2023/09/14 02:23:30;;;;;;;1.23;0.05;;;11.40;99.90;;;;;;5055538;28;20096;-73
2023/09/14 02:25:55;;;;;;;4.70;0.75;;;11.40;99.90;;;;;;5055515;28;20041;-73
2023/09/14 02:28:21;;;;;;;2.88;0.20;;;11.40;99.90;;;;;;5055462;28;20025;-73
2023/09/14 02:30:47;;;;;;;2.92;0.10;;;11.40;99.90;;;;;;5055545;28;20032;-73
2023/09/14 02:33:13;;;;;;;2.20;0.75;;;11.40;99.90;;;;;;5055514;28;20074;-73
2023/09/14 02:35:40;;;;;;;1.58;0.20;;;11.40;99.90;;;;;;5037454;28;20116;-73
2023/09/14 02:38:06;;;;;;;2.20;0.47;;;11.30;99.90;;;;;;5037500;28;20373;-73
2023/09/14 02:40:33;;;;;;;2.33;0.40;;;11.30;99.90;;;;;;5037539;28;20024;-73
2023/09/14 02:42:58;;;;;;;2.00;0.00;;;11.20;99.90;;;;;;5055251;28;20032;-73
2023/09/14 02:45:24;;;;;;;2.97;0.00;;;11.20;99.90;;;;;;5055120;28;20021;-73
2023/09/14 02:47:50;;;;;;;1.42;0.13;;;11.10;99.90;;;;;;5037240;28;20040;-73
2023/09/14 02:50:15;;;;;;;3.00;0.40;;;11.10;99.90;;;;;;5037254;28;20492;-73
2023/09/14 02:52:41;;;;;;;1.88;0.10;;;11.10;99.90;;;;;;5037300;28;20431;-73
2023/09/14 02:55:07;;;;;;;5.97;0.38;;;11.00;99.90;;;;;;5037132;28;20116;-73
2023/09/14 02:57:33;;;;;;;2.58;0.00;;;10.90;99.90;;;;;;5054876;28;20068;-73
2023/09/14 02:59:58;;;;;;;7.55;0.57;;;11.00;99.90;;;;;;5054787;28;20067;-73
2023/09/14 03:02:24;;;;;;;1.85;0.10;;;10.90;99.90;;;;;;5054670;28;20033;-73
2023/09/14 03:04:51;;;;;;;2.17;0.00;;;10.90;99.90;;;;;;5055375;28;20083;-73
2023/09/14 03:07:17;;;;;;;1.55;0.10;;;10.90;99.90;;;;;;5054620;28;20500;-73
2023/09/14 03:09:43;;;;;;;3.67;0.10;;;10.90;99.90;;;;;;5055086;28;20431;-73
2023/09/14 03:12:09;;;;;;;1.23;0.10;;;10.90;99.90;;;;;;5036764;28;20021;-73
2023/09/14 03:14:35;;;;;;;3.90;0.32;;;10.90;99.90;;;;;;5054197;28;20029;-73
2023/09/14 03:17:00;;;;;;;1.50;0.10;;;10.80;99.90;;;;;;5053851;28;20029;-73
2023/09/14 03:19:26;;;;;;;1.80;0.05;;;10.80;99.90;;;;;;5036462;28;20464;-73
2023/09/14 03:21:52;;;;;;;3.80;0.17;;;10.80;99.90;;;;;;5054297;28;20025;-73
2023/09/14 03:24:18;;;;;;;0.80;0.10;;;10.80;99.90;;;;;;5054364;28;20025;-73
2023/09/14 03:26:46;;;;;;;2.40;0.30;;;10.70;99.90;;;;;;5054316;28;20039;-73
2023/09/14 03:29:12;;;;;;;2.03;0.20;;;10.70;99.90;;;;;;5054794;28;20021;-73
2023/09/14 03:31:37;;;;;;;2.25;0.30;;;10.70;99.90;;;;;;5054207;28;20108;-73
2023/09/14 03:34:04;;;;;;;3.33;0.00;;;10.60;99.90;;;;;;5054656;28;20433;-73
2023/09/14 03:36:33;;;;;;;0.40;0.00;;;10.70;99.90;;;;;;5054096;28;20032;-73
2023/09/14 03:38:58;;;;;;;2.92;0.50;;;10.60;99.90;;;;;;5054053;28;20033;-73
2023/09/14 03:41:24;;;;;;;1.42;0.45;;;10.60;99.90;;;;;;5053899;28;20036;-73
2023/09/14 03:43:49;;;;;;;2.05;0.08;;;10.60;99.90;;;;;;5053999;28;20563;-73
2023/09/14 03:46:15;;;;;;;1.80;0.13;;;10.50;99.90;;;;;;5053954;28;20029;-73
2023/09/14 03:48:41;;;;;;;2.45;0.22;;;10.50;99.90;;;;;;5053948;28;20022;-73
2023/09/14 03:51:07;;;;;;;0.88;0.35;;;10.50;99.90;;;;;;5053908;28;20033;-73
2023/09/14 03:53:33;;;;;;;1.92;0.05;;;10.50;99.90;;;;;;5053838;28;20021;-73
2023/09/14 03:56:03;;;;;;;0.47;0.10;;;10.50;99.90;;;;;;5035774;28;20146;-73
2023/09/14 03:58:31;;;;;;;2.22;0.08;;;10.50;99.90;;;;;;5053653;28;20028;-73
2023/09/14 04:00:56;;;;;;;1.88;0.00;;;10.50;99.90;;;;;;5053696;28;20373;-73
2023/09/14 04:03:22;;;;;;;1.02;0.00;;;10.40;99.90;;;;;;5035575;28;20024;-73
2023/09/14 04:05:48;;;;;;;2.15;0.20;;;10.50;99.90;;;;;;5053682;28;20021;-73
2023/09/14 04:08:13;;;;;;;2.67;0.55;;;10.40;99.90;;;;;;5054678;28;20032;-73
2023/09/14 04:10:40;;;;;;;1.85;0.10;;;10.40;99.90;;;;;;5053650;28;20021;-73
2023/09/14 04:13:32;;;;;;;0.57;0.10;;;10.40;99.90;;;;;;5053536;28;20044;-73
2023/09/14 04:15:59;;;;;;;1.63;0.10;;;10.40;99.90;;;;;;5053558;28;20419;-73
2023/09/14 04:18:27;;;;;;;2.75;0.20;;;10.40;99.90;;;;;;5053519;28;20443;-73
2023/09/14 04:20:53;;;;;;;5.33;1.30;;;10.40;99.90;;;;;;5053644;28;20065;-73
2023/09/14 04:23:20;;;;;;;5.18;0.10;;;10.30;99.90;;;;;;5053689;28;20047;-72
2023/09/14 04:25:47;;;;;;;5.22;0.10;;;10.30;99.90;;;;;;5053340;28;20027;-73
2023/09/14 04:28:16;;;;;;;1.40;0.20;;;10.30;99.90;;;;;;5053757;28;20019;-73
2023/09/14 04:30:44;;;;;;;2.90;0.10;;;10.30;99.90;;;;;;5053398;28;20036;-73
2023/09/14 04:33:14;;;;;;;2.45;0.22;;;10.30;99.90;;;;;;5053864;28;20021;-73
2023/09/14 04:35:40;;;;;;;5.30;0.35;;;10.20;99.90;;;;;;5035516;28;20060;-73
2023/09/14 04:38:07;;;;;;;2.65;0.43;;;10.20;99.90;;;;;;5035475;28;20446;-73
2023/09/14 04:40:43;;;;;;;3.92;0.10;;;10.20;99.90;;;;;;5035377;28;20078;-72
2023/09/14 04:43:11;;;;;;;1.23;0.20;;;10.20;99.90;;;;;;5035274;28;20021;-73
2023/09/14 04:45:37;;;;;;;2.78;0.28;;;10.20;99.90;;;;;;5052880;28;20032;-73
2023/09/14 04:48:03;;;;;;;3.83;0.10;;;10.20;99.90;;;;;;5053288;28;20029;-73
2023/09/14 04:50:29;;;;;;;1.35;0.38;;;10.20;99.90;;;;;;5035224;28;20032;-73
2023/09/14 04:52:55;;;;;;;1.25;0.22;;;10.20;99.90;;;;;;5053071;28;20123;-73
2023/09/14 04:55:21;;;;;;;4.20;0.03;;;10.20;99.90;;;;;;5035055;28;20021;-73
2023/09/14 04:57:46;;;;;;;4.25;0.20;;;10.20;99.90;;;;;;5035180;28;20044;-73
2023/09/14 05:00:13;;;;;;;4.53;0.40;;;10.20;99.90;;;;;;5035215;28;20472;-73
2023/09/14 05:02:39;;;;;;;2.22;0.30;;;10.20;99.90;;;;;;5035929;28;20082;-73
2023/09/14 05:05:06;;;;;;;1.38;0.13;;;10.10;99.90;;;;;;5052894;28;20100;-73
2023/09/14 05:07:32;;;;;;;3.00;0.40;;;10.20;99.90;;;;;;5035074;28;20036;-73
2023/09/14 05:09:57;;;;;;;4.60;0.10;;;10.20;99.90;;;;;;5052938;28;20025;-73
2023/09/14 05:12:23;;;;;;;4.75;0.28;;;10.10;99.90;;;;;;5052654;28;20538;-73
2023/09/14 05:14:49;;;;;;;4.88;0.32;;;10.20;99.90;;;;;;5034922;28;20056;-73
2023/09/14 05:17:14;;;;;;;1.10;0.00;;;10.10;99.90;;;;;;5052839;28;20491;-73
2023/09/14 05:19:43;;;;;;;2.08;0.35;;;10.20;99.90;;;;;;5053403;28;20488;-73
2023/09/14 05:22:09;;;;;;;;;;;10.20;99.90;;;;;;5053209;28;20025;-73
2023/09/14 05:24:35;;;;;;;2.05;0.10;;;10.10;99.90;;;;;;5052750;28;19912;-73
2023/09/14 05:27:00;;;;;;;4.05;0.43;;;10.20;99.90;;;;;;5052961;28;20021;-72
2023/09/14 05:29:26;;;;;;;3.25;0.75;;;10.20;99.90;;;;;;5052897;28;20017;-73
2023/09/14 05:31:52;;;;;;;1.08;0.20;;;10.10;99.90;;;;;;5052910;28;20051;-73
2023/09/14 05:34:17;;;;;;;4.10;0.22;;;10.10;99.90;;;;;;5052722;28;20017;-73
2023/09/14 05:36:43;;;;;;;4.30;0.75;;;10.20;99.90;;;;;;5052758;28;20020;-73
2023/09/14 05:39:08;;;;;;;4.65;0.45;;;10.20;99.90;;;;;;5054591;28;20025;-74
2023/09/14 05:41:35;;;;;;;5.40;0.30;;;10.30;99.90;;;;;;5056657;28;20018;-72
2023/09/14 05:44:00;;;;;;;2.03;0.13;;;10.30;99.90;;;;;;5038505;28;20396;-72
2023/09/14 05:46:26;;;;;;;1.48;0.10;;;10.40;99.90;;;;;;5037675;28;20031;-72
2023/09/14 05:48:52;;;;;;;17.98;0.43;;;10.50;99.90;;;;;;5037213;28;20478;-74
2023/09/14 05:51:17;;;;;;;4.80;0.20;;;10.50;99.90;;;;;;5054314;28;20068;-74
2023/09/14 05:53:43;;;;;;;1.90;0.10;;;10.60;99.90;;;;;;5038375;28;20021;-74
2023/09/14 05:56:08;;;;;;;2.50;0.32;;;10.60;99.90;;;;;;5038097;28;20108;-74
2023/09/14 05:58:34;;;;;;;3.95;0.43;;;10.80;99.90;;;;;;5056203;28;20021;-75
2023/09/14 06:01:04;;;;;;;6.25;0.50;;;10.80;99.90;;;;;;5056130;28;20053;-72
2023/09/14 06:03:30;;;;;;;2.55;1.05;;;10.90;99.90;;;;;;5038188;28;20021;-75
2023/09/14 06:05:55;;;;;;;5.47;0.47;;;11.00;99.90;;;;;;5056018;28;20095;-76
2023/09/14 06:08:21;;;;;;;8.20;0.95;;;11.00;99.90;;;;;;5038067;28;20021;-75
2023/09/14 06:10:46;;;;;;;7.88;0.52;;;11.10;99.90;;;;;;5056525;28;20470;-73
2023/09/14 06:13:12;;;;;;;4.10;0.88;;;11.20;99.90;;;;;;5037980;28;20071;-73
2023/09/14 06:15:38;;;;;;;2.95;0.40;;;12.00;99.90;;;;;;5038114;28;20115;-73
2023/09/14 06:18:03;;;;;;;3.92;0.68;;;11.40;99.90;;;;;;5037883;28;20361;-73
2023/09/14 06:20:31;;;;;;;3.85;0.60;;;11.50;99.90;;;;;;5037777;28;20029;-73
2023/09/14 06:22:57;;;;;;;6.32;1.08;;;11.50;99.90;;;;;;5037879;28;20021;-72
2023/09/14 06:25:22;;;;;;;2.33;0.65;;;11.60;99.90;;;;;;5055587;28;20411;-73
2023/09/14 06:27:49;;;;;;;4.00;0.70;;;11.80;99.90;;;;;;5055574;28;20095;-73
2023/09/14 06:30:14;;;;;;;4.05;0.85;;;11.80;99.90;;;;;;5037618;28;20017;-73
2023/09/14 06:32:40;;;;;;;6.78;1.42;;;12.00;99.90;;;;;;5037767;28;20079;-73
2023/09/14 06:35:06;;;;;;;4.38;0.82;;;12.20;99.90;;;;;;5055941;28;20400;-73
2023/09/14 06:37:32;;;;;;;3.60;0.77;;;12.20;99.90;;;;;;5055482;28;20480;-73
2023/09/14 06:39:57;;;;;;;10.15;1.42;;;12.40;99.90;;;;;;5055361;28;20119;-73
2023/09/14 06:42:23;;;;;;;5.75;1.02;;;12.70;99.90;;;;;;5055326;28;22387;-73
2023/09/14 06:44:48;;;;;;;5.43;0.85;;;12.70;99.90;;;;;;5055214;28;20017;-73
2023/09/14 06:47:14;;;;;;;7.13;0.70;;;12.80;99.90;;;;;;5055187;28;20028;-73
2023/09/14 06:49:39;;;;;;;4.28;0.68;;;13.10;99.90;;;;;;5037175;28;20438;-73
2023/09/14 06:52:05;;;;;;;3.15;1.25;;;13.20;99.90;;;;;;5055117;28;20520;-73
2023/09/14 06:54:31;;;;;;;5.07;0.88;;;13.30;99.90;;;;;;5055093;28;20078;-73
2023/09/14 06:56:56;;;;;;;9.80;0.85;;;13.40;99.90;;;;;;5037110;28;20013;-73
2023/09/14 06:59:22;;;;;;;7.03;2.15;;;13.60;99.90;;;;;;5054918;28;20013;-73
2023/09/14 07:01:47;;;;;;;10.40;1.30;;;13.60;99.90;;;;;;5055550;28;20035;-73
2023/09/14 07:04:13;;;;;;;7.30;0.50;;;13.80;99.90;;;;;;5054984;28;20031;-73
2023/09/14 07:06:39;;;;;;;8.00;1.30;;;13.80;99.90;;;;;;5036951;28;20021;-73
2023/09/14 07:09:06;;;;;;;7.63;1.67;;;13.90;99.90;;;;;;5054718;28;20077;-73
2023/09/14 07:11:32;;;;;;;5.90;1.30;;;14.00;99.90;;;;;;5054837;28;20109;-73
2023/09/14 07:13:58;;;;;;;6.35;0.73;;;14.10;99.90;;;;;;5054728;28;20028;-73
2023/09/14 07:16:23;;;;;;;1.88;0.40;;;14.30;99.90;;;;;;5055041;28;20021;-73
2023/09/14 07:18:49;;;;;;;5.13;0.57;;;14.50;99.90;;;;;;5055233;28;20032;-73
2023/09/14 07:21:14;;;;;;;4.32;1.30;;;14.50;99.90;;;;;;5054632;28;20477;-73
2023/09/14 07:23:41;;;;;;;4.70;0.30;;;14.50;99.90;;;;;;5054486;28;20500;-73
2023/09/14 07:26:07;;;;;;;5.70;1.00;;;14.70;99.90;;;;;;5054446;28;20036;-73
2023/09/14 07:28:33;;;;;;;6.65;1.27;;;14.80;99.90;;;;;;5055072;28;20021;-73
2023/09/14 07:31:04;;;;;;;8.15;0.90;;;14.90;99.90;;;;;;5054522;28;20021;-73
2023/09/14 07:33:30;;;;;;;6.43;0.65;;;15.00;99.90;;;;;;5054425;28;20025;-73
2023/09/14 07:35:55;;;;;;;4.00;0.80;;;15.00;99.90;;;;;;5054195;28;20029;-73
2023/09/14 07:38:21;;;;;;;12.45;0.68;;;15.10;99.90;;;;;;5054355;28;20048;-73
2023/09/14 07:40:48;;;;;;;3.53;0.82;;;15.10;99.90;;;;;;5036394;28;20026;-73
2023/09/14 07:43:14;;;;;;;5.15;0.90;;;15.20;99.90;;;;;;5054150;28;20067;-73
2023/09/14 07:45:40;;;;;;;3.88;0.77;;;15.30;99.90;;;;;;5054087;28;20441;-73
2023/09/14 07:48:07;;;;;;;4.68;0.63;;;15.40;99.90;;;;;;5036271;28;20025;-74
2023/09/14 07:50:39;;;;;;;8.43;1.00;;;15.50;99.90;;;;;;5054005;28;20049;-73
2023/09/14 07:53:09;;;;;;;8.38;0.70;;;15.50;99.90;;;;;;5054004;28;20024;-73
2023/09/14 07:55:36;;;;;;;6.53;1.10;;;15.90;99.90;;;;;;5053935;28;20021;-73
2023/09/14 07:58:02;;;;;;;6.60;0.88;;;15.80;99.90;;;;;;5036085;28;20021;-73
2023/09/14 08:00:28;;;;;;;5.10;1.42;;;15.90;99.90;;;;;;5053974;28;20032;-73
2023/09/14 08:02:54;;;;;;;5.70;0.55;;;16.00;99.90;;;;;;5053278;28;20029;-73
2023/09/14 08:05:20;;;;;;;8.27;0.90;;;16.10;99.90;;;;;;5035923;28;20527;-73
2023/09/14 08:07:45;;;;;;;7.07;1.20;;;16.00;99.90;;;;;;5053878;28;20025;-73
2023/09/14 08:10:11;;;;;;;4.80;1.05;;;16.10;99.90;;;;;;5053842;28;20036;-73
2023/09/14 08:12:37;;;;;;;3.30;0.57;;;16.30;99.90;;;;;;5035913;28;20037;-73
2023/09/14 08:15:07;;;;;;;7.63;1.33;;;16.50;99.90;;;;;;5053602;28;20071;-73
2023/09/14 08:17:33;;;;;;;7.55;1.38;;;16.40;99.90;;;;;;5054214;28;20423;-73
2023/09/14 08:19:59;;;;;;;3.53;1.15;;;16.60;99.90;;;;;;5053532;28;20027;-73
2023/09/14 08:22:28;;;;;;;4.55;1.25;;;16.70;99.90;;;;;;5035667;28;20086;-73
2023/09/14 08:24:55;;;;;;;4.32;0.63;;;16.90;99.90;;;;;;5035686;28;20017;-73
2023/09/14 08:27:22;;;;;;;3.10;0.95;;;17.10;99.90;;;;;;5053359;28;20017;-73
2023/09/14 08:29:47;;;;;;;5.30;1.45;;;17.20;99.90;;;;;;5054089;28;20029;-73
2023/09/14 08:32:13;;;;;;;11.20;1.38;;;17.30;99.90;;;;;;5053641;28;20435;-73
2023/09/14 08:34:39;;;;;;;3.92;1.27;;;17.50;99.90;;;;;;5053392;28;20017;-73
2023/09/14 08:37:08;;;;;;;6.28;1.08;;;17.60;99.90;;;;;;5053299;28;20021;-73
2023/09/14 08:39:33;;;;;;;4.03;1.48;;;17.80;99.90;;;;;;5035469;28;20025;-73
2023/09/14 08:42:02;;;;;;;6.40;1.30;;;17.90;99.90;;;;;;5053247;28;20072;-73
2023/09/14 08:44:29;;;;;;;;;;;18.10;99.90;;;;;;5035801;28;20035;-73
2023/09/14 08:46:56;;;;;;;8.20;2.38;;;18.20;99.90;;;;;;5052995;28;19917;-73
2023/09/14 08:49:24;;;;;;;2.78;1.20;;;18.40;99.90;;;;;;5053267;28;20171;-73
2023/09/14 08:51:52;;;;;;;6.72;1.95;;;18.30;99.90;;;;;;5053155;28;20055;-73
2023/09/14 08:54:20;;;;;;;5.72;1.48;;;18.40;99.90;;;;;;5053113;28;20028;-73
2023/09/14 08:56:49;;;;;;;13.00;1.92;;;18.50;99.90;;;;;;5053126;28;20021;-74
2023/09/14 08:59:16;;;;;;;5.30;1.00;;;18.50;99.90;;;;;;5054012;28;20029;-74
2023/09/14 09:01:44;;;;;;;4.18;1.25;;;18.60;99.90;;;;;;5053015;28;20384;-74
2023/09/14 09:04:10;;;;;;;8.65;1.67;;;18.70;99.90;;;;;;5035353;28;20098;-74
2023/09/14 09:06:37;;;;;;;9.93;2.25;;;18.80;99.90;;;;;;5035116;28;20480;-74
2023/09/14 09:09:04;;;;;;;3.15;1.08;;;18.80;99.90;;;;;;5035368;28;20025;-74
2023/09/14 09:11:30;;;;;;;5.78;1.77;;;18.90;99.90;;;;;;5052947;28;20025;-74
2023/09/14 09:13:56;;;;;;;5.68;1.63;;;18.80;99.90;;;;;;5055078;28;20044;-74
2023/09/14 09:16:21;;;;;;;5.90;1.50;;;18.90;99.90;;;;;;5057337;28;20025;-74
2023/09/14 09:19:04;;;;;;;5.47;1.13;;;18.90;99.90;;;;;;5039008;28;20035;-74
2023/09/14 09:21:32;;;;;;;8.13;2.08;;;19.10;99.90;;;;;;5056824;28;20128;-74
2023/09/14 09:23:59;;;;;;;7.95;1.52;;;19.20;99.90;;;;;;5057288;28;20060;-74
2023/09/14 09:26:33;;;;;;;5.75;1.80;;;19.20;99.90;;;;;;5056749;28;20392;-74
2023/09/14 09:28:58;;;;;;;4.70;1.52;;;19.30;99.90;;;;;;5038810;28;20113;-73
2023/09/14 09:31:43;;;;;;;3.38;1.30;;;19.40;99.90;;;;;;5038876;28;20106;-73
2023/09/14 09:34:12;;;;;;;3.72;1.25;;;19.50;99.90;;;;;;5039542;28;20121;-73
2023/09/14 09:36:38;;;;;;;3.60;1.15;;;19.70;99.90;;;;;;5056812;28;20070;-72
2023/09/14 09:39:05;;;;;;;5.10;1.15;;;19.60;99.90;;;;;;5056565;28;20096;-73
2023/09/14 09:41:33;;;;;;;5.43;1.35;;;19.60;99.90;;;;;;5038614;28;20025;-73
2023/09/14 09:43:58;;;;;;;3.05;0.85;;;19.70;99.90;;;;;;5056319;28;20017;-72
2023/09/14 09:46:24;;;;;;;7.90;1.15;;;19.80;99.90;;;;;;5038706;28;20051;-73
2023/09/14 09:48:50;;;;;;;4.53;1.20;;;19.90;99.90;;;;;;5056439;28;20017;-72
2023/09/14 09:51:20;;;;;;;2.55;1.25;;;20.00;99.90;;;;;;5056844;28;20461;-73
2023/09/14 09:54:06;;;;;;;4.93;1.73;;;20.20;99.90;;;;;;5056827;28;20047;-72
2023/09/14 09:56:34;;;;;;;4.45;1.38;;;20.50;99.90;;;;;;5056208;28;20032;-72
2023/09/14 09:59:05;;;;;;;4.68;1.63;;;20.80;99.90;;;;;;5056306;28;20031;-73
2023/09/14 10:01:31;;;;;;;4.00;1.17;;;20.80;99.90;;;;;;5056247;28;20021;-72
2023/09/14 10:03:59;;;;;;;4.32;1.15;;;20.90;99.90;;;;;;5038102;28;20035;-73
2023/09/14 10:06:25;;;;;;;5.95;1.45;;;21.00;99.90;;;;;;5056542;28;20017;-73
2023/09/14 10:08:57;;;;;;;2.85;0.63;;;21.10;99.90;;;;;;5038336;28;20074;-73
2023/09/14 10:11:24;;;;;;;6.45;1.25;;;21.40;99.90;;;;;;5055950;28;20104;-73
2023/09/14 10:13:51;;;;;;;4.97;1.00;;;21.70;99.90;;;;;;5038138;28;20017;-73
2023/09/14 10:16:23;;;;;;;4.28;0.52;;;21.70;99.90;;;;;;5055791;28;20396;-73
2023/09/14 10:18:53;;;;;;;6.65;1.25;;;21.50;99.90;;;;;;5056455;28;20078;-73
2023/09/14 10:21:21;;;;;;;3.63;0.85;;;21.30;99.90;;;;;;5055944;28;20029;-73
2023/09/14 10:23:47;;;;;;;3.72;0.43;;;21.20;99.90;;;;;;5055582;28;20420;-74
2023/09/14 10:26:13;;;;;;;5.03;0.75;;;21.20;99.90;;;;;;5055323;28;20357;-73
2023/09/14 10:28:39;;;;;;;1.52;0.50;;;21.20;99.90;;;;;;5055633;28;20028;-74
2023/09/14 10:31:06;;;;;;;6.43;1.02;;;21.20;99.90;;;;;;5037722;28;20032;-73
2023/09/14 10:33:32;;;;;;;4.60;0.38;;;20.70;99.90;;;;;;5056088;28;20377;-73
2023/09/14 10:36:00;;;;;;;3.85;0.50;;;20.70;99.90;;;;;;5037582;28;20025;-73
2023/09/14 10:38:28;;;;;;;2.60;0.40;;;20.50;99.90;;;;;;5055638;28;20025;-73
2023/09/14 10:40:54;;;;;;;2.83;0.10;;;20.20;99.90;;;;;;5055488;28;20025;-74
2023/09/14 10:43:20;;;;;;;5.47;0.45;;;20.10;99.90;;;;;;5037587;28;20040;-74
2023/09/14 10:45:48;;;;;;;3.63;0.70;;;20.30;99.90;;;;;;5055372;28;20112;-74
2023/09/14 10:48:19;;;;;;;1.50;0.30;;;21.00;99.90;;;;;;5055777;28;20045;-74
2023/09/14 10:50:45;;;;;;;3.35;0.65;;;21.00;99.90;;;;;;5037469;28;20017;-74
2023/09/14 10:53:14;;;;;;;2.42;0.40;;;21.40;99.90;;;;;;5037495;28;20412;-74
2023/09/14 10:55:41;;;;;;;2.78;0.30;;;21.60;99.90;;;;;;5037149;28;20119;-74
2023/09/14 10:58:11;;;;;;;2.28;0.40;;;22.00;99.90;;;;;;5037324;28;20029;-74
2023/09/14 11:00:38;;;;;;;3.65;0.30;;;22.10;99.90;;;;;;5055466;28;20056;-74
2023/09/14 11:03:06;;;;;;;2.95;0.63;;;22.30;99.90;;;;;;5055024;28;20021;-74
2023/09/14 11:05:42;;;;;;;2.83;0.57;;;22.40;99.90;;;;;;5055056;28;20097;-74
2023/09/14 11:08:09;;;;;;;2.92;0.45;;;22.50;99.90;;;;;;5054970;28;20025;-74
2023/09/14 11:10:37;;;;;;;3.67;0.45;;;22.90;99.90;;;;;;5055004;28;20032;-74
2023/09/14 11:13:21;;;;;;;3.22;0.85;;;22.90;99.90;;;;;;5054875;28;20071;-74
2023/09/14 11:15:54;;;;;;;4.57;0.75;;;23.00;99.90;;;;;;5036728;28;20040;-74
2023/09/14 11:18:32;;;;;;;5.25;0.88;;;23.20;99.90;;;;;;5036878;28;20337;-73
2023/09/14 11:20:57;;;;;;;5.43;0.57;;;23.10;99.90;;;;;;5036962;28;20025;-73
2023/09/14 11:23:32;;;;;;;2.47;0.35;;;23.30;99.90;;;;;;5054556;28;20628;-73
2023/09/14 11:25:58;;;;;;;5.88;0.85;;;23.60;99.90;;;;;;5054618;28;20029;-73
2023/09/14 11:28:24;;;;;;;1.35;0.38;;;23.50;99.50;;;;;;5036777;28;20027;-73
2023/09/14 11:30:50;;;;;;;2.20;0.20;;;23.60;99.90;;;;;;5054423;28;20032;-72
2023/09/14 11:33:16;;;;;;;2.88;0.30;;;23.70;98.50;;;;;;5054454;28;20021;-72
2023/09/14 11:35:47;;;;;;;2.33;0.20;;;23.70;97.00;;;;;;5053840;28;20032;-73
2023/09/14 11:38:21;;;;;;;2.63;0.40;;;23.60;97.80;;;;;;5053964;28;20074;-72
2023/09/14 11:40:47;;;;;;;3.95;0.30;;;23.80;97.00;;;;;;5054260;28;20523;-72
2023/09/14 11:45:49;;;;;;;3.90;0.40;;;23.90;97.50;;;;;;5054303;28;20062;-72
2023/09/14 11:48:16;;;;;;;8.10;0.28;;;24.10;96.90;;;;;;5054253;28;20388;-73
2023/09/14 11:50:46;;;;;;;0.98;0.20;;;23.80;95.80;;;;;;5054121;28;20547;-72
2023/09/14 11:53:17;;;;;;;1.20;0.20;;;23.50;95.60;;;;;;5054116;28;20021;-72
2023/09/14 11:55:43;;;;;;;4.47;1.17;;;23.00;97.40;;;;;;5053845;28;20025;-73
2023/09/14 11:58:09;;;;;;;5.18;0.57;;;23.30;96.20;;;;;;5036086;28;20028;-73
2023/09/14 12:00:39;;;;;;;2.40;0.32;;;23.20;96.60;;;;;;5054376;28;20339;-73
2023/09/14 12:03:06;;;;;;;4.10;0.47;;;23.80;96.60;;;;;;5053627;28;20025;-72
2023/09/14 12:05:32;;;;;;;2.90;0.60;;;24.20;94.90;;;;;;5053717;28;20063;-72
2023/09/14 12:07:57;;;;;;;2.97;0.40;;;24.20;93.00;;;;;;5053766;28;20091;-73
2023/09/14 12:10:23;;;;;;;1.02;0.22;;;23.90;94.60;;;;;;5035904;28;20488;-72
2023/09/14 12:12:49;;;;;;;2.58;0.25;;;23.60;96.00;;;;;;5054339;28;20423;-72
2023/09/14 12:15:21;;;;;;;2.55;0.85;;;23.50;96.30;;;;;;5053490;28;20060;-72
2023/09/14 12:17:52;;;;;;;2.72;0.85;;;23.60;96.20;;;;;;5053577;28;20094;-73
2023/09/14 12:20:18;;;;;;;4.15;0.30;;;24.00;97.10;;;;;;5053447;28;20068;-72
2023/09/14 12:22:45;;;;;;;2.15;0.20;;;24.60;96.90;;;;;;5035925;28;20086;-73
2023/09/14 12:25:13;;;;;;;3.80;0.93;;;24.80;94.10;;;;;;5035769;28;20484;-73
2023/09/14 12:27:40;;;;;;;2.10;0.30;;;24.80;94.30;;;;;;5053352;28;20122;-73
2023/09/14 12:30:08;;;;;;;1.77;0.20;;;24.80;94.70;;;;;;5053518;28;20032;-72
2023/09/14 12:32:35;;;;;;;2.28;0.55;;;24.90;93.70;;;;;;5053442;28;20028;-72
2023/09/14 12:35:04;;;;;;;3.35;0.55;;;25.10;94.10;;;;;;5053245;28;20017;-72
2023/09/14 12:37:30;;;;;;;;;;;25.20;93.20;;;;;;5035796;28;20073;-72
2023/09/14 12:39:57;;;;;;;2.30;0.17;;;25.00;93.80;;;;;;5035322;28;19911;-72
2023/09/14 12:42:24;;;;;;;2.28;0.20;;;25.20;94.30;;;;;;5035173;28;20053;-72
2023/09/14 12:44:54;;;;;;;4.03;0.60;;;25.60;94.10;;;;;;5053158;28;20032;-73
2023/09/14 12:47:19;;;;;;;2.42;0.35;;;25.80;92.80;;;;;;5035026;28;20063;-73
2023/09/14 12:49:45;;;;;;;2.72;0.38;;;26.10;92.30;;;;;;5053242;28;20519;-73